createdAt,value
2019-04-20T00:00:50.702Z,3.43
2019-04-20T00:03:17.950Z,3.20
2019-04-20T00:05:46.698Z,3.60
2019-04-20T00:08:21.483Z,3.70
2019-04-20T00:10:56.117Z,3.67
2019-04-20T00:13:24.534Z,3.10
2019-04-20T00:15:47.110Z,3.10
2019-04-20T00:18:16.892Z,3.13
2019-04-20T00:20:59.318Z,2.83
2019-04-20T00:23:33.457Z,3.27
2019-04-20T00:26:14.824Z,3.27
2019-04-20T00:28:56.234Z,3.00
2019-04-20T00:31:23.593Z,3.50
2019-04-20T00:33:51.613Z,2.70
2019-04-20T00:36:08.974Z,3.03
2019-04-20T00:38:42.605Z,2.93
2019-04-20T00:41:12.066Z,2.63
2019-04-20T00:43:40.501Z,2.70
2019-04-20T00:46:33.995Z,2.60
2019-04-20T00:49:08.885Z,2.50
2019-04-20T00:51:49.400Z,2.40
2019-04-20T00:54:00.117Z,2.17
2019-04-20T00:56:28.844Z,2.50
2019-04-20T00:59:08.281Z,3.10
2019-04-20T01:01:49.018Z,2.93
2019-04-20T01:04:34.254Z,2.60
2019-04-20T01:06:58.161Z,2.50
2019-04-20T01:09:33.042Z,2.70
2019-04-20T01:12:03.220Z,2.50
2019-04-20T01:14:42.769Z,3.40
2019-04-20T01:17:11.152Z,3.37
2019-04-20T01:19:32.045Z,3.00
2019-04-20T01:22:05.258Z,3.10
2019-04-20T01:24:35.332Z,2.80
2019-04-20T01:27:04.133Z,2.97
2019-04-20T01:29:39.239Z,2.90
2019-04-20T01:32:10.566Z,3.20
2019-04-20T01:34:41.831Z,2.80
2019-04-20T01:37:33.714Z,3.20
2019-04-20T01:39:55.470Z,3.50
2019-04-20T01:42:21.450Z,2.60
2019-04-20T01:44:52.354Z,3.03
2019-04-20T01:47:23.775Z,3.13
2019-04-20T01:49:59.891Z,2.67
2019-04-20T01:52:26.914Z,2.70
2019-04-20T01:55:24.730Z,3.33
2019-04-20T01:57:59.881Z,2.60
2019-04-20T02:00:24.447Z,2.83
2019-04-20T02:02:57.066Z,2.83
2019-04-20T02:05:27.658Z,3.00
2019-04-20T02:07:54.181Z,2.73
2019-04-20T02:10:31.070Z,2.70
2019-04-20T02:12:57.563Z,3.43
2019-04-20T02:15:30.053Z,3.03
2019-04-20T02:18:08.469Z,2.50
2019-04-20T02:20:47.309Z,2.70
2019-04-20T02:23:09.443Z,2.73
2019-04-20T02:25:24.826Z,2.90
2019-04-20T02:28:01.800Z,2.90
2019-04-20T02:31:04.990Z,2.60
2019-04-20T02:36:27.504Z,2.60
2019-04-20T02:41:35.091Z,2.80
2019-04-20T02:46:31.728Z,3.30
2019-04-20T02:49:10.130Z,2.70
2019-04-20T02:51:33.068Z,2.90
2019-04-20T02:54:12.941Z,2.63
2019-04-20T02:59:31.603Z,3.10
2019-04-20T03:01:40.711Z,2.97
2019-04-20T03:03:56.715Z,2.93
2019-04-20T03:06:32.638Z,2.83
2019-04-20T03:09:17.271Z,2.90
2019-04-20T03:11:52.766Z,3.20
2019-04-20T03:14:10.628Z,2.63
2019-04-20T03:16:39.695Z,3.20
2019-04-20T03:19:10.922Z,3.33
2019-04-20T03:21:46.052Z,2.47
2019-04-20T03:24:38.794Z,2.97
2019-04-20T03:26:59.511Z,3.13
2019-04-20T03:29:41.040Z,2.60
2019-04-20T03:32:44.986Z,3.17
2019-04-20T03:35:00.844Z,3.20
2019-04-20T03:37:25.426Z,3.03
2019-04-20T03:39:42.957Z,3.00
2019-04-20T03:41:56.995Z,3.10
2019-04-20T03:44:27.791Z,3.30
2019-04-20T03:46:59.777Z,3.73
2019-04-20T03:49:48.338Z,3.13
2019-04-20T03:52:28.790Z,3.63
2019-04-20T03:54:55.492Z,3.10
2019-04-20T03:57:46.847Z,3.00
2019-04-20T04:00:23.627Z,3.80
2019-04-20T04:05:34.170Z,3.67
2019-04-20T04:07:56.224Z,3.10
2019-04-20T04:10:28.350Z,3.30
2019-04-20T04:13:07.320Z,3.00
2019-04-20T04:15:42.774Z,3.33
2019-04-20T04:18:15.844Z,3.07
2019-04-20T04:20:46.731Z,3.50
2019-04-20T04:23:24.617Z,3.10
2019-04-20T04:25:55.656Z,3.50
2019-04-20T04:28:27.616Z,3.40
2019-04-20T04:30:59.946Z,3.00
2019-04-20T04:35:59.182Z,4.00
2019-04-20T04:38:35.979Z,4.20
2019-04-20T04:41:12.023Z,4.63
2019-04-20T04:43:36.080Z,4.20
2019-04-20T04:45:40.788Z,4.30
2019-04-20T04:48:16.781Z,4.30
2019-04-20T04:50:48.344Z,4.00
2019-04-20T04:53:23.866Z,4.13
2019-04-20T04:55:47.761Z,4.10
2019-04-20T04:58:10.679Z,4.53
2019-04-20T05:00:40.725Z,4.03
2019-04-20T05:03:31.047Z,4.00
2019-04-20T05:06:01.881Z,4.10
2019-04-20T05:08:22.031Z,4.20
2019-04-20T05:10:43.691Z,4.17
2019-04-20T05:13:13.573Z,4.20
2019-04-20T05:15:54.151Z,4.00
2019-04-20T05:18:59.305Z,3.70
2019-04-20T05:21:22.954Z,3.83
2019-04-20T05:23:47.706Z,3.97
2019-04-20T05:26:25.910Z,3.80
2019-04-20T05:28:51.329Z,3.83
2019-04-20T05:31:13.417Z,4.03
2019-04-20T05:34:09.553Z,4.40
2019-04-20T05:36:29.627Z,5.00
2019-04-20T05:39:10.260Z,4.40
2019-04-20T05:41:32.737Z,5.37
2019-04-20T05:44:04.751Z,4.83
2019-04-20T05:46:37.358Z,4.63
2019-04-20T05:49:20.638Z,4.27
2019-04-20T05:51:43.286Z,4.90
2019-04-20T05:54:15.494Z,4.60
2019-04-20T05:56:46.849Z,4.60
2019-04-20T05:59:11.176Z,4.90
2019-04-20T06:01:45.241Z,4.37
2019-04-20T06:04:46.107Z,4.23
2019-04-20T06:07:06.460Z,5.00
2019-04-20T06:09:34.238Z,3.83
2019-04-20T06:14:46.793Z,4.17
2019-04-20T06:17:22.514Z,4.20
2019-04-20T06:19:54.647Z,4.43
2019-04-20T06:22:33.133Z,4.13
2019-04-20T06:25:31.336Z,4.30
2019-04-20T06:27:48.526Z,4.23
2019-04-20T06:30:11.045Z,4.67
2019-04-20T06:33:36.771Z,3.70
2019-04-20T06:36:11.454Z,4.57
2019-04-20T06:38:46.540Z,4.37
2019-04-20T06:41:19.765Z,4.47
2019-04-20T06:43:25.494Z,4.53
2019-04-20T06:45:56.855Z,4.13
2019-04-20T06:48:30.521Z,5.13
2019-04-20T06:50:49.267Z,3.67
2019-04-20T06:53:32.298Z,4.50
2019-04-20T06:56:07.085Z,4.73
2019-04-20T07:01:23.473Z,5.07
2019-04-20T07:04:00.709Z,4.43
2019-04-20T07:06:34.296Z,4.20
2019-04-20T07:11:23.950Z,4.40
2019-04-20T07:13:59.410Z,4.60
2019-04-20T07:16:46.476Z,4.70
2019-04-20T07:19:20.129Z,4.43
2019-04-20T07:22:05.868Z,4.40
2019-04-20T07:24:26.836Z,5.10
2019-04-20T07:26:55.860Z,4.30
2019-04-20T07:29:27.228Z,4.43
2019-04-20T07:31:48.754Z,4.30
2019-04-20T07:34:23.480Z,4.13
2019-04-20T07:37:21.183Z,4.63
2019-04-20T07:39:44.436Z,4.30
2019-04-20T07:42:19.173Z,4.97
2019-04-20T07:44:48.811Z,4.83
2019-04-20T07:47:22.056Z,4.90
2019-04-20T07:49:40.395Z,5.00
2019-04-20T07:51:53.942Z,5.13
2019-04-20T07:54:50.691Z,3.90
2019-04-20T07:57:09.980Z,3.93
2019-04-20T07:59:32.122Z,4.10
2019-04-20T08:02:39.148Z,4.30
2019-04-20T08:04:59.493Z,3.90
2019-04-20T08:07:14.595Z,3.90
2019-04-20T08:09:51.414Z,4.10
2019-04-20T08:12:51.674Z,3.00
2019-04-20T08:15:32.825Z,4.40
2019-04-20T08:17:52.853Z,4.23
2019-04-20T08:20:17.307Z,4.40
2019-04-20T08:22:47.915Z,3.50
2019-04-20T08:25:08.229Z,3.43
2019-04-20T08:27:29.772Z,3.63
2019-04-20T08:30:23.896Z,4.00
2019-04-20T08:32:55.587Z,3.50
2019-04-20T08:35:33.134Z,3.73
2019-04-20T08:38:23.981Z,5.10
2019-04-20T08:40:31.418Z,3.40
2019-04-20T08:43:16.866Z,3.30
2019-04-20T08:45:34.936Z,4.07
2019-04-20T08:48:12.846Z,3.87
2019-04-20T08:50:35.591Z,4.20
2019-04-20T08:55:33.179Z,3.37
2019-04-20T08:57:46.881Z,5.67
2019-04-20T09:00:18.307Z,4.20
2019-04-20T09:02:51.913Z,3.83
2019-04-20T09:05:34.790Z,3.50
2019-04-20T09:08:06.865Z,3.73
2019-04-20T09:10:45.538Z,3.37
2019-04-20T09:13:08.346Z,3.83
2019-04-20T09:15:27.878Z,6.67
2019-04-20T09:18:02.037Z,6.10
2019-04-20T09:20:39.765Z,3.50
2019-04-20T09:23:16.688Z,3.90
2019-04-20T09:28:23.833Z,3.20
2019-04-20T09:31:11.961Z,3.60
2019-04-20T09:33:51.457Z,3.20
2019-04-20T09:36:18.203Z,3.50
2019-04-20T09:39:04.865Z,4.07
2019-04-20T09:41:56.481Z,4.10
2019-04-20T09:44:04.843Z,4.03
2019-04-20T09:46:40.354Z,3.40
2019-04-20T09:49:15.707Z,4.40
2019-04-20T09:51:54.122Z,3.50
2019-04-20T09:54:26.798Z,4.03
2019-04-20T09:56:55.264Z,3.30
2019-04-20T09:59:22.060Z,10.10
2019-04-20T10:01:41.901Z,36.43
2019-04-20T10:04:05.498Z,33.93
2019-04-20T10:06:35.979Z,10.13
2019-04-20T10:09:07.393Z,3.33
2019-04-20T10:11:37.298Z,3.87
2019-04-20T10:14:06.245Z,5.47
2019-04-20T10:16:35.676Z,6.60
2019-04-20T10:19:04.923Z,3.37
2019-04-20T10:21:33.945Z,3.50
2019-04-20T10:24:02.845Z,4.27
2019-04-20T10:26:32.395Z,3.47
2019-04-20T10:29:01.549Z,7.10
2019-04-20T10:31:30.752Z,3.90
2019-04-20T10:33:59.765Z,3.60
2019-04-20T10:36:49.411Z,3.67
2019-04-20T10:39:20.406Z,8.13
2019-04-20T10:41:54.299Z,4.80
2019-04-20T10:44:19.248Z,5.17
2019-04-20T10:46:49.060Z,3.60
2019-04-20T10:49:17.719Z,3.87
2019-04-20T10:51:47.467Z,11.57
2019-04-20T10:54:16.391Z,3.60
2019-04-20T10:56:45.748Z,2.83
2019-04-20T10:59:14.259Z,3.00
2019-04-20T11:01:43.425Z,3.43
2019-04-20T11:04:12.922Z,12.30
2019-04-20T11:06:42.753Z,3.40
2019-04-20T11:09:11.432Z,7.80
2019-04-20T11:11:40.699Z,2.30
2019-04-20T11:14:16.306Z,2.57
2019-04-20T11:16:40.259Z,2.70
2019-04-20T11:19:09.439Z,2.70
2019-04-20T11:21:38.587Z,2.80
2019-04-20T11:24:08.121Z,2.90
2019-04-20T11:26:38.855Z,2.67
2019-04-20T11:29:08.281Z,2.87
2019-04-20T11:31:43.129Z,3.03
2019-04-20T11:34:08.046Z,2.20
2019-04-20T11:36:37.100Z,2.53
2019-04-20T11:39:09.316Z,2.77
2019-04-20T11:41:38.878Z,2.83
2019-04-20T11:44:07.680Z,3.17
2019-04-20T11:46:36.626Z,3.40
2019-04-20T11:49:05.681Z,3.47
2019-04-20T11:51:34.359Z,3.13
2019-04-20T11:54:04.121Z,3.30
2019-04-20T11:56:37.944Z,3.67
2019-04-20T11:59:03.319Z,2.97
2019-04-20T12:01:56.548Z,3.77
2019-04-20T12:04:34.059Z,3.13
2019-04-20T12:07:15.075Z,3.50
2019-04-20T12:09:44.031Z,2.90
2019-04-20T12:12:26.772Z,2.80
2019-04-20T12:14:42.987Z,3.50
2019-04-20T12:17:11.631Z,3.13
2019-04-20T12:19:40.148Z,3.03
2019-04-20T12:22:09.694Z,3.57
2019-04-20T12:24:38.244Z,3.70
2019-04-20T12:27:07.011Z,3.30
2019-04-20T12:29:36.634Z,3.10
2019-04-20T12:32:07.158Z,3.40
2019-04-20T12:34:35.509Z,3.67
2019-04-20T12:37:05.002Z,2.77
2019-04-20T12:39:33.731Z,3.40
2019-04-20T12:42:05.968Z,3.50
2019-04-20T12:44:32.360Z,2.70
2019-04-20T12:47:01.590Z,3.33
2019-04-20T12:49:31.616Z,3.30
2019-04-20T12:52:03.558Z,3.43
2019-04-20T12:54:30.440Z,3.63
2019-04-20T12:57:00.434Z,4.00
2019-04-20T12:59:29.659Z,3.43
2019-04-20T13:01:59.255Z,3.23
2019-04-20T13:04:28.056Z,3.47
2019-04-20T13:06:58.112Z,2.60
2019-04-20T13:09:30.623Z,2.67
2019-04-20T13:12:12.147Z,3.43
2019-04-20T13:17:44.382Z,3.53
2019-04-20T13:20:18.711Z,2.47
2019-04-20T13:22:47.161Z,3.63
2019-04-20T13:25:16.868Z,2.30
2019-04-20T13:27:45.590Z,2.93
2019-04-20T13:30:14.373Z,3.10
2019-04-20T13:32:43.612Z,2.73
2019-04-20T13:35:12.551Z,2.50
2019-04-20T13:37:42.293Z,3.13
2019-04-20T13:40:11.669Z,3.67
2019-04-20T13:42:41.402Z,3.00
2019-04-20T13:45:10.858Z,2.83
2019-04-20T13:47:39.409Z,3.73
2019-04-20T13:50:09.718Z,3.10
2019-04-20T13:52:38.610Z,2.80
2019-04-20T13:55:07.426Z,2.83
2019-04-20T13:57:48.550Z,3.10
2019-04-20T14:00:22.664Z,3.03
2019-04-20T14:02:54.123Z,4.50
2019-04-20T14:05:34.921Z,4.20
2019-04-20T14:08:07.341Z,3.70
2019-04-20T14:10:37.644Z,3.93
2019-04-20T14:13:12.137Z,4.20
2019-04-20T14:15:37.371Z,4.63
2019-04-20T14:18:07.031Z,3.77
2019-04-20T14:20:36.236Z,4.30
2019-04-20T14:23:05.312Z,3.53
2019-04-20T14:25:33.943Z,3.73
2019-04-20T14:28:02.815Z,3.80
2019-04-20T14:30:31.509Z,4.80
2019-04-20T14:33:01.017Z,4.80
2019-04-20T14:35:29.676Z,5.20
2019-04-20T14:37:59.611Z,4.40
2019-04-20T14:40:28.383Z,5.33
2019-04-20T14:42:58.303Z,5.03
2019-04-20T14:45:27.047Z,4.60
2019-04-20T14:47:55.588Z,4.10
2019-04-20T14:50:25.471Z,4.67
2019-04-20T14:52:54.017Z,4.10
2019-04-20T14:55:25.801Z,4.17
2019-04-20T14:57:57.313Z,4.23
2019-04-20T15:00:43.746Z,4.60
2019-04-20T15:03:30.410Z,6.37
2019-04-20T15:06:03.060Z,7.20
2019-04-20T15:08:32.399Z,4.30
2019-04-20T15:11:01.126Z,4.10
2019-04-20T15:13:30.810Z,4.17
2019-04-20T15:15:59.539Z,4.30
2019-04-20T15:18:29.819Z,4.70
2019-04-20T15:21:01.535Z,4.27
2019-04-20T15:23:30.114Z,4.00
2019-04-20T15:26:00.016Z,3.27
2019-04-20T15:28:28.804Z,4.43
2019-04-20T15:31:16.599Z,3.73
2019-04-20T15:33:45.340Z,4.50
2019-04-20T15:36:13.907Z,3.70
2019-04-20T15:38:43.014Z,3.33
2019-04-20T15:41:13.334Z,4.03
2019-04-20T15:43:41.731Z,3.10
2019-04-20T15:46:10.181Z,3.93
2019-04-20T15:48:39.839Z,3.27
2019-04-20T15:51:09.833Z,3.93
2019-04-20T15:53:39.734Z,3.77
2019-04-20T15:56:10.354Z,3.60
2019-04-20T15:58:38.731Z,3.20
2019-04-20T16:01:08.316Z,5.57
2019-04-20T16:03:45.569Z,3.47
2019-04-20T16:06:14.246Z,4.53
2019-04-20T16:08:44.384Z,3.40
2019-04-20T16:11:13.302Z,3.53
2019-04-20T16:13:47.580Z,3.67
2019-04-20T16:16:13.998Z,3.23
2019-04-20T16:18:43.331Z,6.40
2019-04-20T16:21:33.908Z,3.87
2019-04-20T16:24:06.697Z,4.63
2019-04-20T16:26:37.872Z,3.37
2019-04-20T16:29:08.075Z,5.83
2019-04-20T16:31:48.400Z,4.67
2019-04-20T16:34:16.009Z,4.27
2019-04-20T16:36:44.711Z,5.60
2019-04-20T16:39:14.294Z,9.27
2019-04-20T16:41:44.460Z,9.67
2019-04-20T16:44:13.459Z,6.70
2019-04-20T16:46:42.493Z,6.27
2019-04-20T16:49:11.113Z,6.30
2019-04-20T16:51:40.777Z,5.00
2019-04-20T16:54:10.122Z,6.93
2019-04-20T16:56:39.031Z,4.80
2019-04-20T16:59:11.611Z,4.10
2019-04-20T17:01:40.222Z,3.80
2019-04-20T17:04:13.600Z,4.20
2019-04-20T17:06:42.271Z,4.47
2019-04-20T17:09:13.795Z,3.70
2019-04-20T17:11:43.687Z,4.37
2019-04-20T17:14:12.731Z,7.60
2019-04-20T17:16:41.919Z,3.63
2019-04-20T17:19:10.451Z,4.80
2019-04-20T17:21:40.146Z,3.90
2019-04-20T17:24:29.374Z,4.60
2019-04-20T17:27:08.936Z,6.73
2019-04-20T17:29:46.165Z,3.63
2019-04-20T17:32:17.139Z,4.20
2019-04-20T17:35:00.068Z,3.30
2019-04-20T17:37:15.881Z,3.80
2019-04-20T17:40:06.416Z,5.43
2019-04-20T17:42:30.182Z,5.10
2019-04-20T17:44:56.687Z,5.23
2019-04-20T17:47:39.149Z,5.47
2019-04-20T17:50:04.305Z,4.80
2019-04-20T17:52:35.189Z,4.30
2019-04-20T17:54:55.848Z,6.07
2019-04-20T17:57:25.485Z,3.97
2019-04-20T18:00:01.431Z,5.03
2019-04-20T18:02:49.436Z,5.07
2019-04-20T18:05:37.012Z,7.10
2019-04-20T18:08:16.512Z,7.43
2019-04-20T18:10:38.128Z,7.00
2019-04-20T18:12:55.388Z,7.03
2019-04-20T18:15:40.379Z,6.47
2019-04-20T18:20:45.022Z,7.30
2019-04-20T18:23:13.740Z,8.50
2019-04-20T18:26:04.806Z,10.30
2019-04-20T18:28:24.803Z,14.57
2019-04-20T18:30:52.549Z,15.70
2019-04-20T18:33:18.842Z,11.03
2019-04-20T18:35:47.896Z,9.73
2019-04-20T18:38:18.490Z,10.60
2019-04-20T18:40:56.004Z,10.10
2019-04-20T18:43:22.030Z,10.93
2019-04-20T18:46:08.071Z,18.90
2019-04-20T18:48:41.771Z,16.73
2019-04-20T18:50:49.038Z,14.63
2019-04-20T18:53:28.353Z,11.50
2019-04-20T18:55:55.128Z,8.30
2019-04-20T18:58:19.181Z,8.70
2019-04-20T19:00:51.693Z,11.67
2019-04-20T19:03:25.775Z,19.00
2019-04-20T19:05:49.631Z,10.60
2019-04-20T19:08:19.296Z,9.30
2019-04-20T19:10:57.582Z,9.37
2019-04-20T19:13:26.734Z,9.20
2019-04-20T19:16:08.845Z,11.93
2019-04-20T19:18:49.096Z,11.30
2019-04-20T19:21:04.787Z,11.37
2019-04-20T19:23:35.390Z,10.37
2019-04-20T19:26:09.546Z,11.10
2019-04-20T19:28:44.230Z,17.90
2019-04-20T19:31:21.353Z,21.93
2019-04-20T19:33:57.580Z,14.33
2019-04-20T19:36:19.766Z,15.20
2019-04-20T19:38:49.897Z,9.13
2019-04-20T19:41:30.251Z,10.17
2019-04-20T19:43:56.310Z,8.37
2019-04-20T19:46:47.814Z,6.60
2019-04-20T19:48:56.725Z,5.00
2019-04-20T19:51:41.150Z,6.70
2019-04-20T19:54:06.634Z,6.97
2019-04-20T19:56:48.263Z,6.70
2019-04-20T19:59:16.031Z,6.70
2019-04-20T20:01:55.879Z,5.87
2019-04-20T20:04:25.767Z,5.57
2019-04-20T20:07:01.866Z,6.40
2019-04-20T20:09:25.830Z,6.10
2019-04-20T20:11:56.060Z,6.10
2019-04-20T20:14:32.301Z,5.40
2019-04-20T20:17:08.887Z,5.00
2019-04-20T20:19:38.129Z,4.67
2019-04-20T20:22:07.965Z,5.30
2019-04-20T20:24:25.413Z,4.90
2019-04-20T20:27:00.464Z,4.93
2019-04-20T20:29:34.252Z,5.70
2019-04-20T20:32:13.262Z,6.00
2019-04-20T20:34:32.378Z,5.57
2019-04-20T20:37:01.813Z,5.57
2019-04-20T20:39:31.073Z,17.13
2019-04-20T20:42:10.901Z,6.10
2019-04-20T20:44:38.944Z,5.43
2019-04-20T20:47:12.955Z,5.17
2019-04-20T20:50:17.396Z,5.63
2019-04-20T20:52:32.398Z,5.83
2019-04-20T20:54:56.444Z,5.77
2019-04-20T20:57:45.096Z,6.63
2019-04-20T21:00:26.849Z,5.40
2019-04-20T21:02:48.624Z,5.60
2019-04-20T21:05:09.296Z,5.83
2019-04-20T21:07:38.635Z,6.70
2019-04-20T21:10:08.366Z,5.87
2019-04-20T21:12:43.561Z,6.73
2019-04-20T21:15:13.422Z,6.33
2019-04-20T21:18:10.696Z,6.30
2019-04-20T21:20:27.610Z,5.80
2019-04-20T21:23:04.261Z,5.77
2019-04-20T21:25:36.110Z,6.00
2019-04-20T21:28:00.626Z,6.77
2019-04-20T21:30:35.005Z,5.97
2019-04-20T21:33:03.416Z,6.83
2019-04-20T21:35:36.971Z,7.27
2019-04-20T21:38:14.904Z,6.33
2019-04-20T21:40:59.684Z,5.60
2019-04-20T21:43:38.775Z,5.50
2019-04-20T21:46:07.203Z,5.90
2019-04-20T21:48:51.723Z,7.17
2019-04-20T21:51:23.313Z,6.80
2019-04-20T21:53:35.863Z,6.43
2019-04-20T21:56:06.022Z,5.80
2019-04-20T21:58:41.672Z,6.23
2019-04-20T22:01:16.353Z,6.60
2019-04-20T22:03:36.346Z,6.30
2019-04-20T22:06:26.528Z,7.10
2019-04-20T22:09:00.431Z,6.17
2019-04-20T22:11:25.964Z,6.70
2019-04-20T22:13:55.427Z,5.27
2019-04-20T22:16:38.925Z,5.43
2019-04-20T22:19:17.216Z,6.10
2019-04-20T22:22:04.032Z,5.40
2019-04-20T22:24:39.960Z,5.83
2019-04-20T22:27:04.607Z,5.73
2019-04-20T22:29:23.883Z,7.10
2019-04-20T22:32:00.496Z,6.23
2019-04-20T22:34:26.217Z,5.17
2019-04-20T22:36:53.825Z,4.90
2019-04-20T22:39:31.935Z,6.07
2019-04-20T22:42:00.256Z,5.40
2019-04-20T22:44:30.362Z,5.90
2019-04-20T22:47:00.491Z,5.63
2019-04-20T22:49:45.786Z,5.33
2019-04-20T22:52:13.177Z,5.67
2019-04-20T22:54:44.629Z,5.77
2019-04-20T22:57:11.885Z,5.97
2019-04-20T22:59:40.885Z,5.67
2019-04-20T23:02:02.354Z,4.83
2019-04-20T23:04:30.903Z,5.37
2019-04-20T23:07:03.134Z,5.00
2019-04-20T23:09:34.206Z,6.03
2019-04-20T23:12:08.058Z,6.47
2019-04-20T23:14:32.163Z,5.53
2019-04-20T23:17:02.007Z,5.37
2019-04-20T23:19:54.764Z,5.57
2019-04-20T23:22:21.085Z,4.90
2019-04-20T23:25:09.199Z,4.67
2019-04-20T23:27:39.087Z,5.00
2019-04-20T23:30:12.606Z,5.50
2019-04-20T23:32:39.938Z,5.40
2019-04-20T23:35:13.432Z,5.57
2019-04-20T23:37:40.595Z,5.07
2019-04-20T23:40:30.356Z,5.10
2019-04-20T23:43:03.118Z,5.60
2019-04-20T23:45:38.757Z,4.93
2019-04-20T23:48:22.732Z,5.70
2019-04-20T23:51:08.245Z,4.93
2019-04-20T23:53:37.605Z,4.80
2019-04-20T23:55:52.034Z,4.47
2019-04-20T23:58:21.175Z,5.20
